sensor_id;sensor_type;location;lat;lon;timestamp;P1;durP1;ratioP1;P2;durP2;ratioP2
3054;SDS011;1537;52.018;8.542;2023-01-08T00:00:54;5.90;;;4.40;;
3054;SDS011;1537;52.018;8.542;2023-01-08T00:04:18;6.20;;;4.67;;
3054;SDS011;1537;52.018;8.542;2023-01-08T00:07:43;6.67;;;4.73;;
3054;SDS011;1537;52.018;8.542;2023-01-08T00:11:07;8.67;;;4.80;;
3054;SDS011;1537;52.018;8.542;2023-01-08T00:14:31;5.40;;;4.17;;
3054;SDS011;1537;52.018;8.542;2023-01-08T00:17:56;6.80;;;5.20;;
3054;SDS011;1537;52.018;8.542;2023-01-08T00:21:20;5.70;;;4.10;;
3054;SDS011;1537;52.018;8.542;2023-01-08T00:24:46;6.40;;;4.50;;
3054;SDS011;1537;52.018;8.542;2023-01-08T00:28:10;5.50;;;4.43;;
3054;SDS011;1537;52.018;8.542;2023-01-08T00:31:35;6.10;;;4.97;;
3054;SDS011;1537;52.018;8.542;2023-01-08T00:35:05;6.10;;;4.40;;
3054;SDS011;1537;52.018;8.542;2023-01-08T00:38:29;5.83;;;4.60;;
3054;SDS011;1537;52.018;8.542;2023-01-08T00:41:53;6.20;;;4.50;;
3054;SDS011;1537;52.018;8.542;2023-01-08T00:45:17;6.10;;;4.70;;
3054;SDS011;1537;52.018;8.542;2023-01-08T00:48:46;5.90;;;4.40;;
3054;SDS011;1537;52.018;8.542;2023-01-08T00:52:12;7.50;;;5.00;;
3054;SDS011;1537;52.018;8.542;2023-01-08T00:55:35;6.30;;;4.57;;
3054;SDS011;1537;52.018;8.542;2023-01-08T00:59:09;8.90;;;7.50;;
3054;SDS011;1537;52.018;8.542;2023-01-08T01:02:33;6.13;;;4.00;;
3054;SDS011;1537;52.018;8.542;2023-01-08T01:06:00;5.80;;;4.13;;
3054;SDS011;1537;52.018;8.542;2023-01-08T01:09:25;5.87;;;4.27;;
3054;SDS011;1537;52.018;8.542;2023-01-08T01:12:50;5.57;;;4.10;;
3054;SDS011;1537;52.018;8.542;2023-01-08T01:16:14;5.67;;;4.17;;
3054;SDS011;1537;52.018;8.542;2023-01-08T01:19:39;5.90;;;4.63;;
3054;SDS011;1537;52.018;8.542;2023-01-08T01:23:03;6.30;;;4.80;;
3054;SDS011;1537;52.018;8.542;2023-01-08T01:26:28;5.77;;;4.33;;
3054;SDS011;1537;52.018;8.542;2023-01-08T01:29:53;5.20;;;4.00;;
3054;SDS011;1537;52.018;8.542;2023-01-08T01:33:16;7.00;;;4.70;;
3054;SDS011;1537;52.018;8.542;2023-01-08T01:36:44;6.77;;;4.77;;
3054;SDS011;1537;52.018;8.542;2023-01-08T01:40:08;4.77;;;3.90;;
3054;SDS011;1537;52.018;8.542;2023-01-08T01:43:36;5.77;;;3.80;;
3054;SDS011;1537;52.018;8.542;2023-01-08T01:47:04;5.43;;;3.87;;
3054;SDS011;1537;52.018;8.542;2023-01-08T01:50:34;5.70;;;3.87;;
3054;SDS011;1537;52.018;8.542;2023-01-08T01:54:03;4.50;;;3.43;;
3054;SDS011;1537;52.018;8.542;2023-01-08T01:57:30;5.30;;;4.03;;
3054;SDS011;1537;52.018;8.542;2023-01-08T02:00:57;6.53;;;4.27;;
3054;SDS011;1537;52.018;8.542;2023-01-08T02:04:30;5.97;;;4.30;;
3054;SDS011;1537;52.018;8.542;2023-01-08T02:07:55;6.10;;;4.23;;
3054;SDS011;1537;52.018;8.542;2023-01-08T02:11:29;6.27;;;4.27;;
3054;SDS011;1537;52.018;8.542;2023-01-08T02:15:02;5.20;;;3.90;;
3054;SDS011;1537;52.018;8.542;2023-01-08T02:18:35;6.07;;;3.50;;
3054;SDS011;1537;52.018;8.542;2023-01-08T02:22:10;4.97;;;4.07;;
3054;SDS011;1537;52.018;8.542;2023-01-08T02:29:35;5.03;;;4.17;;
3054;SDS011;1537;52.018;8.542;2023-01-08T02:32:59;5.50;;;4.30;;
3054;SDS011;1537;52.018;8.542;2023-01-08T02:36:28;6.40;;;3.83;;
3054;SDS011;1537;52.018;8.542;2023-01-08T02:40:08;4.87;;;3.80;;
3054;SDS011;1537;52.018;8.542;2023-01-08T02:43:44;5.00;;;4.10;;
3054;SDS011;1537;52.018;8.542;2023-01-08T02:47:10;7.23;;;4.37;;
3054;SDS011;1537;52.018;8.542;2023-01-08T02:50:40;5.97;;;3.80;;
3054;SDS011;1537;52.018;8.542;2023-01-08T02:54:09;6.50;;;3.70;;
3054;SDS011;1537;52.018;8.542;2023-01-08T02:57:36;5.57;;;3.97;;
3054;SDS011;1537;52.018;8.542;2023-01-08T03:01:03;4.87;;;4.07;;
3054;SDS011;1537;52.018;8.542;2023-01-08T03:04:29;6.27;;;4.60;;
3054;SDS011;1537;52.018;8.542;2023-01-08T03:07:59;5.63;;;3.87;;
3054;SDS011;1537;52.018;8.542;2023-01-08T03:11:25;4.90;;;3.50;;
3054;SDS011;1537;52.018;8.542;2023-01-08T03:14:57;4.63;;;3.57;;
3054;SDS011;1537;52.018;8.542;2023-01-08T03:18:26;4.80;;;3.30;;
3054;SDS011;1537;52.018;8.542;2023-01-08T03:21:55;5.00;;;3.37;;
3054;SDS011;1537;52.018;8.542;2023-01-08T03:25:21;4.93;;;3.50;;
3054;SDS011;1537;52.018;8.542;2023-01-08T03:28:47;4.23;;;3.17;;
3054;SDS011;1537;52.018;8.542;2023-01-08T03:32:15;7.50;;;4.60;;
3054;SDS011;1537;52.018;8.542;2023-01-08T03:35:44;5.80;;;4.00;;
3054;SDS011;1537;52.018;8.542;2023-01-08T03:39:12;5.67;;;3.60;;
3054;SDS011;1537;52.018;8.542;2023-01-08T03:42:39;6.53;;;3.47;;
3054;SDS011;1537;52.018;8.542;2023-01-08T03:46:03;6.17;;;3.80;;
3054;SDS011;1537;52.018;8.542;2023-01-08T03:49:31;4.10;;;3.20;;
3054;SDS011;1537;52.018;8.542;2023-01-08T03:52:58;5.27;;;3.47;;
3054;SDS011;1537;52.018;8.542;2023-01-08T03:56:22;5.10;;;3.27;;
3054;SDS011;1537;52.018;8.542;2023-01-08T03:59:47;5.07;;;3.37;;
3054;SDS011;1537;52.018;8.542;2023-01-08T04:03:13;5.10;;;3.20;;
3054;SDS011;1537;52.018;8.542;2023-01-08T04:06:37;6.07;;;3.33;;
3054;SDS011;1537;52.018;8.542;2023-01-08T04:10:03;4.83;;;3.47;;
3054;SDS011;1537;52.018;8.542;2023-01-08T04:13:27;5.00;;;3.30;;
3054;SDS011;1537;52.018;8.542;2023-01-08T04:16:51;5.40;;;3.80;;
3054;SDS011;1537;52.018;8.542;2023-01-08T04:20:15;5.30;;;3.70;;
3054;SDS011;1537;52.018;8.542;2023-01-08T04:23:39;4.33;;;3.00;;
3054;SDS011;1537;52.018;8.542;2023-01-08T04:27:05;4.90;;;3.50;;
3054;SDS011;1537;52.018;8.542;2023-01-08T04:30:29;4.47;;;3.60;;
3054;SDS011;1537;52.018;8.542;2023-01-08T04:33:53;4.57;;;2.80;;
3054;SDS011;1537;52.018;8.542;2023-01-08T04:37:17;5.33;;;3.73;;
3054;SDS011;1537;52.018;8.542;2023-01-08T04:40:41;4.73;;;3.00;;
3054;SDS011;1537;52.018;8.542;2023-01-08T04:44:07;4.20;;;2.83;;
3054;SDS011;1537;52.018;8.542;2023-01-08T04:47:31;5.30;;;3.20;;
3054;SDS011;1537;52.018;8.542;2023-01-08T04:50:56;6.30;;;3.80;;
3054;SDS011;1537;52.018;8.542;2023-01-08T04:54:20;4.20;;;3.20;;
3054;SDS011;1537;52.018;8.542;2023-01-08T04:57:44;7.80;;;3.50;;
3054;SDS011;1537;52.018;8.542;2023-01-08T05:01:10;4.63;;;3.43;;
3054;SDS011;1537;52.018;8.542;2023-01-08T05:04:38;4.40;;;3.23;;
3054;SDS011;1537;52.018;8.542;2023-01-08T05:08:01;5.53;;;3.47;;
3054;SDS011;1537;52.018;8.542;2023-01-08T05:11:28;3.97;;;3.00;;
3054;SDS011;1537;52.018;8.542;2023-01-08T05:14:52;6.00;;;3.40;;
3054;SDS011;1537;52.018;8.542;2023-01-08T05:18:18;6.07;;;3.73;;
3054;SDS011;1537;52.018;8.542;2023-01-08T05:21:41;5.53;;;3.60;;
3054;SDS011;1537;52.018;8.542;2023-01-08T05:25:06;5.10;;;3.77;;
3054;SDS011;1537;52.018;8.542;2023-01-08T05:28:30;6.13;;;3.03;;
3054;SDS011;1537;52.018;8.542;2023-01-08T05:31:55;4.60;;;3.30;;
3054;SDS011;1537;52.018;8.542;2023-01-08T05:35:23;4.70;;;2.77;;
3054;SDS011;1537;52.018;8.542;2023-01-08T05:38:46;4.50;;;3.50;;
3054;SDS011;1537;52.018;8.542;2023-01-08T05:42:10;4.00;;;2.60;;
3054;SDS011;1537;52.018;8.542;2023-01-08T05:45:34;4.33;;;3.27;;
3054;SDS011;1537;52.018;8.542;2023-01-08T05:48:58;7.13;;;3.00;;
3054;SDS011;1537;52.018;8.542;2023-01-08T05:52:26;4.90;;;2.87;;
3054;SDS011;1537;52.018;8.542;2023-01-08T05:55:50;4.60;;;3.17;;
3054;SDS011;1537;52.018;8.542;2023-01-08T05:59:14;4.37;;;2.70;;
3054;SDS011;1537;52.018;8.542;2023-01-08T06:02:38;4.97;;;2.27;;
3054;SDS011;1537;52.018;8.542;2023-01-08T06:06:03;5.83;;;3.40;;
3054;SDS011;1537;52.018;8.542;2023-01-08T06:09:29;4.23;;;2.70;;
3054;SDS011;1537;52.018;8.542;2023-01-08T06:12:53;6.13;;;2.53;;
3054;SDS011;1537;52.018;8.542;2023-01-08T06:16:19;5.17;;;2.60;;
3054;SDS011;1537;52.018;8.542;2023-01-08T06:19:43;3.60;;;1.73;;
3054;SDS011;1537;52.018;8.542;2023-01-08T06:23:09;6.37;;;3.70;;
3054;SDS011;1537;52.018;8.542;2023-01-08T06:26:34;4.50;;;2.47;;
3054;SDS011;1537;52.018;8.542;2023-01-08T06:29:57;5.20;;;2.37;;
3054;SDS011;1537;52.018;8.542;2023-01-08T06:33:21;4.23;;;2.00;;
3054;SDS011;1537;52.018;8.542;2023-01-08T06:36:47;3.70;;;1.73;;
3054;SDS011;1537;52.018;8.542;2023-01-08T06:40:12;3.80;;;1.70;;
3054;SDS011;1537;52.018;8.542;2023-01-08T06:43:40;5.40;;;1.80;;
3054;SDS011;1537;52.018;8.542;2023-01-08T06:47:04;4.23;;;1.47;;
3054;SDS011;1537;52.018;8.542;2023-01-08T06:50:28;3.67;;;1.97;;
3054;SDS011;1537;52.018;8.542;2023-01-08T06:53:53;4.00;;;2.00;;
3054;SDS011;1537;52.018;8.542;2023-01-08T06:57:17;3.93;;;2.00;;
3054;SDS011;1537;52.018;8.542;2023-01-08T07:00:43;4.17;;;1.90;;
3054;SDS011;1537;52.018;8.542;2023-01-08T07:04:07;4.23;;;1.70;;
3054;SDS011;1537;52.018;8.542;2023-01-08T07:07:32;4.27;;;1.93;;
3054;SDS011;1537;52.018;8.542;2023-01-08T07:11:03;4.33;;;2.00;;
3054;SDS011;1537;52.018;8.542;2023-01-08T07:14:27;4.80;;;2.50;;
3054;SDS011;1537;52.018;8.542;2023-01-08T07:17:55;3.33;;;1.60;;
3054;SDS011;1537;52.018;8.542;2023-01-08T07:21:18;3.80;;;1.93;;
3054;SDS011;1537;52.018;8.542;2023-01-08T07:24:43;3.30;;;1.60;;
3054;SDS011;1537;52.018;8.542;2023-01-08T07:28:09;3.60;;;2.10;;
3054;SDS011;1537;52.018;8.542;2023-01-08T07:31:34;4.33;;;2.33;;
3054;SDS011;1537;52.018;8.542;2023-01-08T07:34:59;3.33;;;1.87;;
3054;SDS011;1537;52.018;8.542;2023-01-08T07:38:23;3.30;;;1.90;;
3054;SDS011;1537;52.018;8.542;2023-01-08T07:41:46;3.73;;;2.10;;
3054;SDS011;1537;52.018;8.542;2023-01-08T07:45:11;3.73;;;2.27;;
3054;SDS011;1537;52.018;8.542;2023-01-08T07:48:34;3.63;;;1.93;;
3054;SDS011;1537;52.018;8.542;2023-01-08T07:51:59;3.20;;;2.00;;
3054;SDS011;1537;52.018;8.542;2023-01-08T07:55:23;3.90;;;2.07;;
3054;SDS011;1537;52.018;8.542;2023-01-08T07:58:47;3.53;;;2.20;;
3054;SDS011;1537;52.018;8.542;2023-01-08T08:02:10;3.23;;;1.90;;
3054;SDS011;1537;52.018;8.542;2023-01-08T08:05:34;4.07;;;1.97;;
3054;SDS011;1537;52.018;8.542;2023-01-08T08:08:59;3.70;;;2.40;;
3054;SDS011;1537;52.018;8.542;2023-01-08T08:12:24;3.30;;;2.10;;
3054;SDS011;1537;52.018;8.542;2023-01-08T08:15:48;3.50;;;2.23;;
3054;SDS011;1537;52.018;8.542;2023-01-08T08:19:12;3.70;;;2.20;;
3054;SDS011;1537;52.018;8.542;2023-01-08T08:22:36;3.70;;;2.20;;
3054;SDS011;1537;52.018;8.542;2023-01-08T08:26:02;3.67;;;2.23;;
3054;SDS011;1537;52.018;8.542;2023-01-08T08:29:26;3.93;;;2.20;;
3054;SDS011;1537;52.018;8.542;2023-01-08T08:32:50;3.80;;;2.40;;
3054;SDS011;1537;52.018;8.542;2023-01-08T08:36:14;3.80;;;2.27;;
3054;SDS011;1537;52.018;8.542;2023-01-08T08:39:37;4.13;;;2.17;;
3054;SDS011;1537;52.018;8.542;2023-01-08T08:43:03;4.13;;;2.50;;
3054;SDS011;1537;52.018;8.542;2023-01-08T08:46:27;3.57;;;2.27;;
3054;SDS011;1537;52.018;8.542;2023-01-08T08:49:51;3.57;;;2.40;;
3054;SDS011;1537;52.018;8.542;2023-01-08T08:53:14;3.73;;;2.60;;
3054;SDS011;1537;52.018;8.542;2023-01-08T08:56:38;3.23;;;2.00;;
3054;SDS011;1537;52.018;8.542;2023-01-08T09:00:03;4.03;;;2.40;;
3054;SDS011;1537;52.018;8.542;2023-01-08T09:03:28;3.87;;;2.30;;
3054;SDS011;1537;52.018;8.542;2023-01-08T09:06:53;3.50;;;2.30;;
3054;SDS011;1537;52.018;8.542;2023-01-08T09:10:17;3.40;;;2.00;;
3054;SDS011;1537;52.018;8.542;2023-01-08T09:13:40;3.67;;;2.03;;
3054;SDS011;1537;52.018;8.542;2023-01-08T09:17:05;4.80;;;2.27;;
3054;SDS011;1537;52.018;8.542;2023-01-08T09:20:29;3.70;;;2.17;;
3054;SDS011;1537;52.018;8.542;2023-01-08T09:23:53;3.83;;;2.10;;
3054;SDS011;1537;52.018;8.542;2023-01-08T09:27:16;4.37;;;2.20;;
3054;SDS011;1537;52.018;8.542;2023-01-08T09:30:40;4.23;;;2.13;;
3054;SDS011;1537;52.018;8.542;2023-01-08T09:34:05;3.50;;;2.00;;
3054;SDS011;1537;52.018;8.542;2023-01-08T09:37:28;5.13;;;3.00;;
3054;SDS011;1537;52.018;8.542;2023-01-08T09:40:54;4.60;;;2.80;;
3054;SDS011;1537;52.018;8.542;2023-01-08T09:44:22;4.30;;;2.97;;
3054;SDS011;1537;52.018;8.542;2023-01-08T09:47:48;5.77;;;3.23;;
3054;SDS011;1537;52.018;8.542;2023-01-08T09:51:14;3.87;;;2.83;;
3054;SDS011;1537;52.018;8.542;2023-01-08T09:54:40;3.77;;;2.20;;
3054;SDS011;1537;52.018;8.542;2023-01-08T09:58:04;4.07;;;3.00;;
3054;SDS011;1537;52.018;8.542;2023-01-08T10:01:34;6.53;;;2.30;;
3054;SDS011;1537;52.018;8.542;2023-01-08T10:05:09;4.13;;;2.53;;
3054;SDS011;1537;52.018;8.542;2023-01-08T10:08:36;5.77;;;2.63;;
3054;SDS011;1537;52.018;8.542;2023-01-08T10:12:00;3.67;;;2.50;;
3054;SDS011;1537;52.018;8.542;2023-01-08T10:15:27;5.30;;;2.93;;
3054;SDS011;1537;52.018;8.542;2023-01-08T10:18:52;5.83;;;3.00;;
3054;SDS011;1537;52.018;8.542;2023-01-08T10:22:16;6.17;;;4.50;;
3054;SDS011;1537;52.018;8.542;2023-01-08T10:25:48;4.40;;;2.13;;
3054;SDS011;1537;52.018;8.542;2023-01-08T10:29:16;6.43;;;2.43;;
3054;SDS011;1537;52.018;8.542;2023-01-08T10:32:44;4.10;;;2.40;;
3054;SDS011;1537;52.018;8.542;2023-01-08T10:36:10;4.00;;;2.70;;
3054;SDS011;1537;52.018;8.542;2023-01-08T10:39:36;3.90;;;2.60;;
3054;SDS011;1537;52.018;8.542;2023-01-08T10:43:06;5.90;;;3.33;;
3054;SDS011;1537;52.018;8.542;2023-01-08T10:46:34;6.07;;;3.30;;
3054;SDS011;1537;52.018;8.542;2023-01-08T10:50:03;4.57;;;2.70;;
3054;SDS011;1537;52.018;8.542;2023-01-08T10:53:38;7.93;;;3.47;;
3054;SDS011;1537;52.018;8.542;2023-01-08T10:57:02;6.53;;;3.47;;
3054;SDS011;1537;52.018;8.542;2023-01-08T11:00:42;11.30;;;2.97;;
3054;SDS011;1537;52.018;8.542;2023-01-08T11:04:15;6.37;;;2.63;;
3054;SDS011;1537;52.018;8.542;2023-01-08T11:07:48;8.03;;;3.40;;
3054;SDS011;1537;52.018;8.542;2023-01-08T11:11:16;4.53;;;3.00;;
3054;SDS011;1537;52.018;8.542;2023-01-08T11:14:41;7.73;;;3.37;;
3054;SDS011;1537;52.018;8.542;2023-01-08T11:18:14;5.50;;;3.90;;
3054;SDS011;1537;52.018;8.542;2023-01-08T11:21:41;7.10;;;3.77;;
3054;SDS011;1537;52.018;8.542;2023-01-08T11:25:18;6.33;;;3.60;;
3054;SDS011;1537;52.018;8.542;2023-01-08T11:28:49;5.33;;;3.50;;
3054;SDS011;1537;52.018;8.542;2023-01-08T11:32:23;6.80;;;3.10;;
3054;SDS011;1537;52.018;8.542;2023-01-08T11:35:55;7.73;;;4.20;;
3054;SDS011;1537;52.018;8.542;2023-01-08T11:39:24;5.57;;;3.70;;
3054;SDS011;1537;52.018;8.542;2023-01-08T11:42:52;7.77;;;3.60;;
3054;SDS011;1537;52.018;8.542;2023-01-08T11:46:31;7.70;;;4.40;;
3054;SDS011;1537;52.018;8.542;2023-01-08T11:50:04;9.87;;;3.67;;
3054;SDS011;1537;52.018;8.542;2023-01-08T11:53:37;7.00;;;3.40;;
3054;SDS011;1537;52.018;8.542;2023-01-08T11:57:08;7.67;;;4.20;;
3054;SDS011;1537;52.018;8.542;2023-01-08T12:00:46;5.50;;;3.20;;
3054;SDS011;1537;52.018;8.542;2023-01-08T12:04:24;6.57;;;3.70;;
3054;SDS011;1537;52.018;8.542;2023-01-08T12:08:00;6.33;;;3.50;;
3054;SDS011;1537;52.018;8.542;2023-01-08T12:11:28;7.10;;;4.30;;
3054;SDS011;1537;52.018;8.542;2023-01-08T12:14:58;6.97;;;4.23;;
3054;SDS011;1537;52.018;8.542;2023-01-08T12:18:39;7.60;;;3.57;;
3054;SDS011;1537;52.018;8.542;2023-01-08T12:22:23;6.63;;;4.10;;
3054;SDS011;1537;52.018;8.542;2023-01-08T12:25:59;9.90;;;3.90;;
3054;SDS011;1537;52.018;8.542;2023-01-08T12:29:45;6.77;;;3.70;;
3054;SDS011;1537;52.018;8.542;2023-01-08T12:33:26;5.60;;;3.40;;
3054;SDS011;1537;52.018;8.542;2023-01-08T12:37:06;7.80;;;3.80;;
3054;SDS011;1537;52.018;8.542;2023-01-08T12:40:37;6.10;;;3.70;;
3054;SDS011;1537;52.018;8.542;2023-01-08T12:44:05;8.03;;;3.63;;
3054;SDS011;1537;52.018;8.542;2023-01-08T12:47:36;6.30;;;3.63;;
3054;SDS011;1537;52.018;8.542;2023-01-08T12:51:03;8.30;;;4.13;;
3054;SDS011;1537;52.018;8.542;2023-01-08T12:54:32;5.60;;;3.13;;
3054;SDS011;1537;52.018;8.542;2023-01-08T12:58:04;8.70;;;3.40;;
3054;SDS011;1537;52.018;8.542;2023-01-08T13:01:37;5.70;;;3.77;;
3054;SDS011;1537;52.018;8.542;2023-01-08T13:05:13;7.43;;;3.73;;
3054;SDS011;1537;52.018;8.542;2023-01-08T13:08:52;4.87;;;3.13;;
3054;SDS011;1537;52.018;8.542;2023-01-08T13:12:18;5.70;;;3.50;;
3054;SDS011;1537;52.018;8.542;2023-01-08T13:15:52;6.60;;;3.67;;
3054;SDS011;1537;52.018;8.542;2023-01-08T13:19:27;4.60;;;3.40;;
3054;SDS011;1537;52.018;8.542;2023-01-08T13:22:58;7.07;;;3.93;;
3054;SDS011;1537;52.018;8.542;2023-01-08T13:26:27;6.13;;;3.53;;
3054;SDS011;1537;52.018;8.542;2023-01-08T13:29:52;4.30;;;3.53;;
3054;SDS011;1537;52.018;8.542;2023-01-08T13:33:22;9.10;;;3.40;;
3054;SDS011;1537;52.018;8.542;2023-01-08T13:36:55;6.30;;;4.17;;
3054;SDS011;1537;52.018;8.542;2023-01-08T13:40:36;7.33;;;3.77;;
3054;SDS011;1537;52.018;8.542;2023-01-08T13:44:04;4.60;;;3.03;;
3054;SDS011;1537;52.018;8.542;2023-01-08T13:47:40;4.23;;;2.80;;
3054;SDS011;1537;52.018;8.542;2023-01-08T13:51:05;6.13;;;3.60;;
3054;SDS011;1537;52.018;8.542;2023-01-08T13:54:46;4.50;;;3.60;;
3054;SDS011;1537;52.018;8.542;2023-01-08T13:58:13;3.67;;;2.70;;
3054;SDS011;1537;52.018;8.542;2023-01-08T14:01:39;4.07;;;2.80;;
3054;SDS011;1537;52.018;8.542;2023-01-08T14:05:25;4.43;;;2.77;;
3054;SDS011;1537;52.018;8.542;2023-01-08T14:08:51;4.40;;;3.20;;
3054;SDS011;1537;52.018;8.542;2023-01-08T14:12:19;4.20;;;2.70;;
3054;SDS011;1537;52.018;8.542;2023-01-08T14:15:46;4.30;;;3.30;;
3054;SDS011;1537;52.018;8.542;2023-01-08T14:19:10;4.53;;;2.60;;
3054;SDS011;1537;52.018;8.542;2023-01-08T14:22:37;4.07;;;3.03;;
3054;SDS011;1537;52.018;8.542;2023-01-08T14:26:04;6.23;;;3.27;;
3054;SDS011;1537;52.018;8.542;2023-01-08T14:29:31;4.20;;;2.80;;
3054;SDS011;1537;52.018;8.542;2023-01-08T14:32:58;3.83;;;3.00;;
3054;SDS011;1537;52.018;8.542;2023-01-08T14:36:23;4.30;;;3.33;;
3054;SDS011;1537;52.018;8.542;2023-01-08T14:39:47;4.17;;;3.10;;
3054;SDS011;1537;52.018;8.542;2023-01-08T14:43:16;4.20;;;3.43;;
3054;SDS011;1537;52.018;8.542;2023-01-08T14:46:41;4.27;;;3.13;;
3054;SDS011;1537;52.018;8.542;2023-01-08T14:50:15;3.73;;;2.87;;
3054;SDS011;1537;52.018;8.542;2023-01-08T14:53:42;3.73;;;2.70;;
3054;SDS011;1537;52.018;8.542;2023-01-08T14:57:07;6.00;;;3.17;;
3054;SDS011;1537;52.018;8.542;2023-01-08T15:00:34;4.30;;;3.10;;
3054;SDS011;1537;52.018;8.542;2023-01-08T15:04:03;4.53;;;3.67;;
3054;SDS011;1537;52.018;8.542;2023-01-08T15:07:29;5.80;;;3.70;;
3054;SDS011;1537;52.018;8.542;2023-01-08T15:10:56;5.30;;;2.97;;
3054;SDS011;1537;52.018;8.542;2023-01-08T15:14:21;3.97;;;3.03;;
3054;SDS011;1537;52.018;8.542;2023-01-08T15:17:46;4.20;;;3.07;;
3054;SDS011;1537;52.018;8.542;2023-01-08T15:21:09;4.20;;;3.37;;
3054;SDS011;1537;52.018;8.542;2023-01-08T15:24:40;4.37;;;3.43;;
3054;SDS011;1537;52.018;8.542;2023-01-08T15:28:13;4.00;;;3.20;;
3054;SDS011;1537;52.018;8.542;2023-01-08T15:31:44;3.90;;;3.00;;
3054;SDS011;1537;52.018;8.542;2023-01-08T15:35:12;4.13;;;3.27;;
3054;SDS011;1537;52.018;8.542;2023-01-08T15:38:36;4.10;;;3.07;;
3054;SDS011;1537;52.018;8.542;2023-01-08T15:42:07;4.13;;;3.53;;
3054;SDS011;1537;52.018;8.542;2023-01-08T15:45:56;5.20;;;3.13;;
3054;SDS011;1537;52.018;8.542;2023-01-08T15:49:20;4.40;;;2.90;;
3054;SDS011;1537;52.018;8.542;2023-01-08T15:52:44;5.37;;;3.47;;
3054;SDS011;1537;52.018;8.542;2023-01-08T15:56:08;3.90;;;3.40;;
3054;SDS011;1537;52.018;8.542;2023-01-08T15:59:33;5.10;;;4.23;;
3054;SDS011;1537;52.018;8.542;2023-01-08T16:02:58;3.80;;;3.40;;
3054;SDS011;1537;52.018;8.542;2023-01-08T16:06:22;4.27;;;3.23;;
3054;SDS011;1537;52.018;8.542;2023-01-08T16:09:45;4.10;;;3.00;;
3054;SDS011;1537;52.018;8.542;2023-01-08T16:13:09;4.37;;;3.13;;
3054;SDS011;1537;52.018;8.542;2023-01-08T16:16:34;4.00;;;2.90;;
3054;SDS011;1537;52.018;8.542;2023-01-08T16:19:58;3.80;;;2.77;;
3054;SDS011;1537;52.018;8.542;2023-01-08T16:23:21;4.47;;;2.73;;
3054;SDS011;1537;52.018;8.542;2023-01-08T16:26:45;4.30;;;3.33;;
3054;SDS011;1537;52.018;8.542;2023-01-08T16:30:09;4.90;;;3.03;;
3054;SDS011;1537;52.018;8.542;2023-01-08T16:33:36;5.13;;;3.50;;
3054;SDS011;1537;52.018;8.542;2023-01-08T16:37:00;4.50;;;3.00;;
3054;SDS011;1537;52.018;8.542;2023-01-08T16:40:24;4.47;;;2.77;;
3054;SDS011;1537;52.018;8.542;2023-01-08T16:43:47;4.57;;;3.17;;
3054;SDS011;1537;52.018;8.542;2023-01-08T16:47:11;6.27;;;3.00;;
3054;SDS011;1537;52.018;8.542;2023-01-08T16:50:36;5.20;;;2.80;;
3054;SDS011;1537;52.018;8.542;2023-01-08T16:54:00;4.17;;;3.00;;
3054;SDS011;1537;52.018;8.542;2023-01-08T16:57:23;6.03;;;3.10;;
3054;SDS011;1537;52.018;8.542;2023-01-08T17:00:47;5.93;;;3.57;;
3054;SDS011;1537;52.018;8.542;2023-01-08T17:04:11;3.90;;;2.60;;
3054;SDS011;1537;52.018;8.542;2023-01-08T17:07:35;4.10;;;2.87;;
3054;SDS011;1537;52.018;8.542;2023-01-08T17:10:59;3.87;;;2.53;;
3054;SDS011;1537;52.018;8.542;2023-01-08T17:14:27;5.37;;;2.93;;
3054;SDS011;1537;52.018;8.542;2023-01-08T17:17:51;4.50;;;2.37;;
3054;SDS011;1537;52.018;8.542;2023-01-08T17:21:15;4.00;;;2.63;;
3054;SDS011;1537;52.018;8.542;2023-01-08T17:24:40;4.23;;;2.80;;
3054;SDS011;1537;52.018;8.542;2023-01-08T17:28:04;3.63;;;2.30;;
3054;SDS011;1537;52.018;8.542;2023-01-08T17:31:27;4.50;;;2.97;;
3054;SDS011;1537;52.018;8.542;2023-01-08T17:34:51;4.50;;;2.90;;
3054;SDS011;1537;52.018;8.542;2023-01-08T17:38:15;4.37;;;2.60;;
3054;SDS011;1537;52.018;8.542;2023-01-08T17:41:40;3.93;;;2.73;;
3054;SDS011;1537;52.018;8.542;2023-01-08T17:45:21;4.70;;;3.30;;
3054;SDS011;1537;52.018;8.542;2023-01-08T17:48:44;5.97;;;2.83;;
3054;SDS011;1537;52.018;8.542;2023-01-08T17:52:08;4.10;;;2.67;;
3054;SDS011;1537;52.018;8.542;2023-01-08T17:55:32;4.70;;;3.23;;
3054;SDS011;1537;52.018;8.542;2023-01-08T17:58:57;5.90;;;3.17;;
3054;SDS011;1537;52.018;8.542;2023-01-08T18:02:20;5.47;;;3.07;;
3054;SDS011;1537;52.018;8.542;2023-01-08T18:05:46;4.37;;;2.67;;
3054;SDS011;1537;52.018;8.542;2023-01-08T18:09:10;5.10;;;2.83;;
3054;SDS011;1537;52.018;8.542;2023-01-08T18:12:34;4.60;;;2.83;;
3054;SDS011;1537;52.018;8.542;2023-01-08T18:16:01;6.70;;;3.20;;
3054;SDS011;1537;52.018;8.542;2023-01-08T18:19:25;3.80;;;2.60;;
3054;SDS011;1537;52.018;8.542;2023-01-08T18:22:52;5.17;;;2.90;;
3054;SDS011;1537;52.018;8.542;2023-01-08T18:26:17;4.40;;;3.00;;
3054;SDS011;1537;52.018;8.542;2023-01-08T18:29:42;7.73;;;3.30;;
3054;SDS011;1537;52.018;8.542;2023-01-08T18:33:07;3.70;;;2.90;;
3054;SDS011;1537;52.018;8.542;2023-01-08T18:36:31;4.60;;;2.70;;
3054;SDS011;1537;52.018;8.542;2023-01-08T18:39:55;5.83;;;2.80;;
3054;SDS011;1537;52.018;8.542;2023-01-08T18:43:18;4.10;;;2.60;;
3054;SDS011;1537;52.018;8.542;2023-01-08T18:46:42;3.93;;;2.63;;
3054;SDS011;1537;52.018;8.542;2023-01-08T18:50:10;4.10;;;3.07;;
3054;SDS011;1537;52.018;8.542;2023-01-08T18:53:34;3.87;;;2.80;;
3054;SDS011;1537;52.018;8.542;2023-01-08T18:56:57;4.40;;;3.07;;
3054;SDS011;1537;52.018;8.542;2023-01-08T19:00:21;4.30;;;3.07;;
3054;SDS011;1537;52.018;8.542;2023-01-08T19:03:46;5.67;;;3.27;;
3054;SDS011;1537;52.018;8.542;2023-01-08T19:07:12;4.43;;;3.27;;
3054;SDS011;1537;52.018;8.542;2023-01-08T19:10:37;3.70;;;2.70;;
3054;SDS011;1537;52.018;8.542;2023-01-08T19:14:02;4.73;;;3.10;;
3054;SDS011;1537;52.018;8.542;2023-01-08T19:17:28;4.53;;;2.73;;
3054;SDS011;1537;52.018;8.542;2023-01-08T19:20:53;3.80;;;2.93;;
3054;SDS011;1537;52.018;8.542;2023-01-08T19:24:19;4.40;;;2.97;;
3054;SDS011;1537;52.018;8.542;2023-01-08T19:27:43;5.13;;;2.93;;
3054;SDS011;1537;52.018;8.542;2023-01-08T19:31:08;3.90;;;2.57;;
3054;SDS011;1537;52.018;8.542;2023-01-08T19:34:33;6.60;;;2.63;;
3054;SDS011;1537;52.018;8.542;2023-01-08T19:37:57;5.00;;;3.30;;
3054;SDS011;1537;52.018;8.542;2023-01-08T19:41:22;3.90;;;2.70;;
3054;SDS011;1537;52.018;8.542;2023-01-08T19:45:03;7.00;;;3.80;;
3054;SDS011;1537;52.018;8.542;2023-01-08T19:48:27;5.37;;;3.17;;
3054;SDS011;1537;52.018;8.542;2023-01-08T19:51:51;3.57;;;2.93;;
3054;SDS011;1537;52.018;8.542;2023-01-08T19:55:14;5.47;;;3.03;;
3054;SDS011;1537;52.018;8.542;2023-01-08T19:58:41;6.80;;;3.47;;
3054;SDS011;1537;52.018;8.542;2023-01-08T20:02:05;4.70;;;3.43;;
3054;SDS011;1537;52.018;8.542;2023-01-08T20:05:30;6.70;;;2.90;;
3054;SDS011;1537;52.018;8.542;2023-01-08T20:08:55;10.00;;;3.40;;
3054;SDS011;1537;52.018;8.542;2023-01-08T20:12:20;4.77;;;3.50;;
3054;SDS011;1537;52.018;8.542;2023-01-08T20:15:46;8.33;;;3.30;;
3054;SDS011;1537;52.018;8.542;2023-01-08T20:19:17;6.13;;;3.60;;
3054;SDS011;1537;52.018;8.542;2023-01-08T20:22:42;4.97;;;3.70;;
3054;SDS011;1537;52.018;8.542;2023-01-08T20:26:07;5.33;;;3.10;;
3054;SDS011;1537;52.018;8.542;2023-01-08T20:29:33;4.30;;;3.30;;
3054;SDS011;1537;52.018;8.542;2023-01-08T20:32:58;5.60;;;3.33;;
3054;SDS011;1537;52.018;8.542;2023-01-08T20:36:22;4.73;;;3.20;;
3054;SDS011;1537;52.018;8.542;2023-01-08T20:39:48;6.73;;;3.73;;
3054;SDS011;1537;52.018;8.542;2023-01-08T20:43:12;7.60;;;3.50;;
3054;SDS011;1537;52.018;8.542;2023-01-08T20:46:36;4.60;;;3.40;;
3054;SDS011;1537;52.018;8.542;2023-01-08T20:50:01;6.23;;;3.93;;
3054;SDS011;1537;52.018;8.542;2023-01-08T20:53:40;5.30;;;4.20;;
3054;SDS011;1537;52.018;8.542;2023-01-08T20:57:03;5.23;;;3.83;;
3054;SDS011;1537;52.018;8.542;2023-01-08T21:00:27;4.50;;;3.70;;
3054;SDS011;1537;52.018;8.542;2023-01-08T21:03:52;4.27;;;3.30;;
3054;SDS011;1537;52.018;8.542;2023-01-08T21:07:18;4.20;;;3.10;;
3054;SDS011;1537;52.018;8.542;2023-01-08T21:10:43;5.87;;;3.53;;
3054;SDS011;1537;52.018;8.542;2023-01-08T21:14:06;4.57;;;3.10;;
3054;SDS011;1537;52.018;8.542;2023-01-08T21:17:30;5.30;;;3.07;;
3054;SDS011;1537;52.018;8.542;2023-01-08T21:20:56;5.50;;;3.80;;
3054;SDS011;1537;52.018;8.542;2023-01-08T21:24:22;7.67;;;3.60;;
3054;SDS011;1537;52.018;8.542;2023-01-08T21:27:45;3.67;;;2.80;;